Terminal Aerodrome Forecast
Issued by NWS

Home | Current Version | Previous Version | Text Only | Print | Product List | Glossary On
Versions: 1 2 3 4 5 6 7 8 9 10 11 12 13 14 15
000
FTUS42 TJSJ 022340
TAFJBQ
TAF
TJBQ 022340Z 0300/0324 VRB05KT P6SM SCT040
     FM031300 06010KT P6SM SCT030
     FM031700 07010KT P6SM VCSH SCT025 BKN050
     FM032230 VRB05KT P6SM SCT040
      AMD NOT SKED 0302/0311=

USA.gov is the U.S. government's official web portal to all federal, state and local government web resources and services.